createdAt,value
2022-10-02T00:02:38.889Z,102373.66
2022-10-02T00:05:27.681Z,102377.22
2022-10-02T00:08:24.019Z,102371.75
2022-10-02T00:10:58.442Z,102364.00
2022-10-02T00:13:39.689Z,102376.50
2022-10-02T00:16:20.451Z,102376.31
2022-10-02T00:18:49.555Z,102384.66
2022-10-02T00:21:48.580Z,102372.66
2022-10-02T00:24:20.395Z,102377.84
2022-10-02T00:26:53.596Z,102379.81
2022-10-02T00:29:45.839Z,102375.69
2022-10-02T00:32:17.790Z,102378.50
2022-10-02T00:35:23.033Z,102376.72
2022-10-02T00:38:11.671Z,102373.03
2022-10-02T00:41:02.842Z,102373.09
2022-10-02T00:43:50.798Z,102381.81
2022-10-02T00:46:26.879Z,102387.41
2022-10-02T00:49:23.849Z,102376.09
2022-10-02T00:52:17.450Z,102377.81
2022-10-02T00:54:54.515Z,102373.34
2022-10-02T00:57:34.103Z,102373.81
2022-10-02T01:00:11.797Z,102373.44
2022-10-02T01:02:58.533Z,102373.66
2022-10-02T01:05:27.777Z,102370.31
2022-10-02T01:07:57.430Z,102375.22
2022-10-02T01:10:26.911Z,102379.22
2022-10-02T01:12:56.765Z,102382.81
2022-10-02T01:15:34.589Z,102377.25
2022-10-02T01:18:03.037Z,102385.72
2022-10-02T01:20:34.878Z,102385.25
2022-10-02T01:23:03.160Z,102385.16
2022-10-02T01:25:30.988Z,102377.91
2022-10-02T01:27:59.060Z,102372.28
2022-10-02T01:30:27.232Z,102373.81
2022-10-02T01:32:59.992Z,102372.22
2022-10-02T01:35:34.549Z,102378.72
2022-10-02T01:38:07.761Z,102374.50
2022-10-02T01:40:38.481Z,102364.88
2022-10-02T01:43:08.817Z,102372.09
2022-10-02T01:45:59.645Z,102378.50
2022-10-02T01:49:05.329Z,102369.31
2022-10-02T01:51:59.384Z,102370.06
2022-10-02T01:54:29.852Z,102374.59
2022-10-02T01:57:36.107Z,102371.84
2022-10-02T02:00:09.541Z,102379.88
2022-10-02T02:02:42.419Z,102376.31
2022-10-02T02:05:21.043Z,102384.69
2022-10-02T02:07:59.519Z,102379.44
2022-10-02T02:10:37.410Z,102375.09
2022-10-02T02:13:23.720Z,102373.34
2022-10-02T02:16:25.330Z,102369.00
2022-10-02T02:19:12.110Z,102363.44
2022-10-02T02:21:45.391Z,102374.31
2022-10-02T02:24:24.809Z,102368.13
2022-10-02T02:27:02.884Z,102367.28
2022-10-02T02:29:38.884Z,102367.75
2022-10-02T02:32:19.771Z,102366.81
2022-10-02T02:35:34.065Z,102367.09
2022-10-02T02:38:42.270Z,102375.28
2022-10-02T02:41:30.103Z,102376.25
2022-10-02T02:44:33.299Z,102368.28
2022-10-02T02:47:17.515Z,102366.69
2022-10-02T02:49:58.874Z,102362.31
2022-10-02T02:53:03.875Z,102358.09
2022-10-02T02:55:52.537Z,102357.78
2022-10-02T02:59:10.592Z,102357.56
2022-10-02T03:01:42.767Z,102363.81
2022-10-02T03:04:20.152Z,102355.59
2022-10-02T03:07:01.176Z,102351.41
2022-10-02T03:09:33.222Z,102356.78
2022-10-02T03:12:20.306Z,102351.41
2022-10-02T03:15:06.360Z,102356.50
2022-10-02T03:17:45.317Z,102354.16
2022-10-02T03:20:49.941Z,102352.31
2022-10-02T03:23:43.378Z,102364.66
2022-10-02T03:26:27.740Z,102366.66
2022-10-02T03:29:00.835Z,102370.53
2022-10-02T03:31:33.383Z,102365.16
2022-10-02T03:34:05.994Z,102364.81
2022-10-02T03:36:35.124Z,102367.19
2022-10-02T03:39:24.339Z,102352.81
2022-10-02T03:41:54.083Z,102343.97
2022-10-02T03:44:21.821Z,102336.44
2022-10-02T03:46:57.705Z,102335.56
2022-10-02T03:49:25.432Z,102345.03
2022-10-02T03:51:53.328Z,102347.41
2022-10-02T03:54:22.886Z,102333.78
2022-10-02T03:56:56.178Z,102324.06
2022-10-02T03:59:34.619Z,102329.13
2022-10-02T04:02:14.132Z,102323.72
2022-10-02T04:04:52.410Z,102322.72
2022-10-02T04:07:27.274Z,102317.78
2022-10-02T04:10:24.943Z,102323.91
2022-10-02T04:12:58.843Z,102326.59
2022-10-02T04:15:59.795Z,102323.44
2022-10-02T04:18:41.325Z,102325.66
2022-10-02T04:21:30.592Z,102328.28
2022-10-02T04:24:07.849Z,102328.59
2022-10-02T04:26:43.191Z,102330.72
2022-10-02T04:29:27.494Z,102325.94
2022-10-02T04:32:11.190Z,102319.25
2022-10-02T04:34:40.481Z,102325.44
2022-10-02T04:37:37.329Z,102323.50
2022-10-02T04:40:28.837Z,102322.00
2022-10-02T04:43:39.927Z,102322.88
2022-10-02T04:46:38.912Z,102318.50
2022-10-02T04:49:20.812Z,102312.47
2022-10-02T04:51:55.104Z,102309.47
2022-10-02T04:54:39.975Z,102306.28
2022-10-02T04:57:25.545Z,102313.50
2022-10-02T05:00:24.389Z,102298.06
2022-10-02T05:03:21.605Z,102302.41
2022-10-02T05:06:07.319Z,102303.59
2022-10-02T05:08:58.903Z,102297.69
2022-10-02T05:12:07.752Z,102293.00
2022-10-02T05:14:57.880Z,102297.19
2022-10-02T05:18:06.248Z,102298.88
2022-10-02T05:21:03.189Z,102296.53
2022-10-02T05:23:37.521Z,102311.44
2022-10-02T05:26:45.278Z,102308.78
2022-10-02T05:29:51.936Z,102311.09
2022-10-02T05:32:43.726Z,102296.06
2022-10-02T05:35:16.389Z,102298.22
2022-10-02T05:37:58.970Z,102306.44
2022-10-02T05:40:46.289Z,102295.19
2022-10-02T05:43:47.501Z,102290.13
2022-10-02T05:46:44.160Z,102305.34
2022-10-02T05:49:23.025Z,102305.97
2022-10-02T05:52:11.340Z,102306.13
2022-10-02T05:55:22.148Z,102308.97
2022-10-02T05:58:18.111Z,102309.78
2022-10-02T06:00:46.564Z,102304.38
2022-10-02T06:04:03.532Z,102301.84
2022-10-02T06:06:57.403Z,102305.72
2022-10-02T06:09:32.797Z,102301.19
2022-10-02T06:12:04.794Z,102310.88
2022-10-02T06:14:53.875Z,102298.94
2022-10-02T06:17:41.699Z,102304.63
2022-10-02T06:20:39.814Z,102301.72
2022-10-02T06:23:25.702Z,102300.28
2022-10-02T06:25:59.475Z,102289.13
2022-10-02T06:28:55.630Z,102291.97
2022-10-02T06:31:47.620Z,102290.75
2022-10-02T06:34:16.121Z,102289.44
2022-10-02T06:37:02.902Z,102292.75
2022-10-02T06:40:15.002Z,102305.03
2022-10-02T06:43:27.573Z,102294.50
2022-10-02T06:46:02.696Z,102301.59
2022-10-02T06:48:33.462Z,102296.47
2022-10-02T06:51:26.650Z,102292.69
2022-10-02T06:54:23.921Z,102300.13
2022-10-02T06:57:13.228Z,102300.50
2022-10-02T07:00:14.499Z,102298.38
2022-10-02T07:03:28.927Z,102299.69
2022-10-02T07:06:12.800Z,102303.28
2022-10-02T07:09:08.350Z,102304.53
2022-10-02T07:11:51.086Z,102307.84
2022-10-02T07:14:55.994Z,102313.94
2022-10-02T07:17:30.826Z,102319.78
2022-10-02T07:20:14.259Z,102316.88
2022-10-02T07:23:07.788Z,102313.56
2022-10-02T07:25:56.491Z,102320.00
2022-10-02T07:28:37.812Z,102323.03
2022-10-02T07:31:23.211Z,102315.69
2022-10-02T07:34:06.747Z,102319.13
2022-10-02T07:36:34.410Z,102322.41
2022-10-02T07:39:24.354Z,102326.56
2022-10-02T07:42:18.530Z,102327.06
2022-10-02T07:45:31.705Z,102336.47
2022-10-02T07:48:41.187Z,102351.91
2022-10-02T07:51:41.187Z,102359.88
2022-10-02T07:54:08.527Z,102358.19
2022-10-02T07:56:37.865Z,102342.44
2022-10-02T07:59:11.688Z,102340.63
2022-10-02T08:01:41.880Z,102343.78
2022-10-02T08:04:19.142Z,102345.69
2022-10-02T08:06:48.450Z,102342.38
2022-10-02T08:09:29.684Z,102337.19
2022-10-02T08:12:10.427Z,102332.63
2022-10-02T08:14:44.190Z,102331.41
2022-10-02T08:17:31.216Z,102335.16
2022-10-02T08:20:16.217Z,102331.84
2022-10-02T08:22:52.477Z,102337.88
2022-10-02T08:25:49.239Z,102331.22
2022-10-02T08:28:24.608Z,102341.81
2022-10-02T08:30:51.960Z,102341.97
2022-10-02T08:33:23.294Z,102336.13
2022-10-02T08:35:59.725Z,102330.22
2022-10-02T08:38:40.054Z,102336.06
2022-10-02T08:41:22.273Z,102341.63
2022-10-02T08:44:15.606Z,102330.75
2022-10-02T08:46:59.036Z,102331.53
2022-10-02T08:49:47.779Z,102324.59
2022-10-02T08:52:31.564Z,102324.78
2022-10-02T08:55:20.118Z,102317.84
2022-10-02T08:58:11.195Z,102314.22
2022-10-02T09:01:04.516Z,102319.66
2022-10-02T09:04:18.304Z,102311.47
2022-10-02T09:07:08.432Z,102318.25
2022-10-02T09:09:55.616Z,102319.88
2022-10-02T09:12:42.906Z,102318.16
2022-10-02T09:15:18.836Z,102305.00
2022-10-02T09:17:48.606Z,102306.16
2022-10-02T09:20:24.264Z,102296.50
2022-10-02T09:23:36.714Z,102300.97
2022-10-02T09:26:46.620Z,102296.06
2022-10-02T09:29:38.359Z,102298.34
2022-10-02T09:32:44.860Z,102297.22
2022-10-02T09:35:53.774Z,102290.28
2022-10-02T09:38:30.420Z,102282.97
2022-10-02T09:41:33.547Z,102289.00
2022-10-02T09:44:24.210Z,102285.38
2022-10-02T09:47:19.503Z,102286.13
2022-10-02T09:50:14.217Z,102278.50
2022-10-02T09:53:17.159Z,102276.75
2022-10-02T09:55:57.638Z,102274.78
2022-10-02T09:58:46.186Z,102268.88
2022-10-02T10:01:32.785Z,102264.41
2022-10-02T10:04:30.489Z,102258.91
2022-10-02T10:07:33.153Z,102253.63
2022-10-02T10:10:13.218Z,102244.78
2022-10-02T10:12:49.967Z,102249.06
2022-10-02T10:15:30.235Z,102242.69
2022-10-02T10:18:10.889Z,102242.50
2022-10-02T10:20:44.835Z,102228.19
2022-10-02T10:23:51.556Z,102232.69
2022-10-02T10:26:45.099Z,102228.78
2022-10-02T10:29:45.635Z,102219.69
2022-10-02T10:32:32.601Z,102223.84
2022-10-02T10:35:24.272Z,102218.16
2022-10-02T10:38:31.580Z,102211.75
2022-10-02T10:41:02.555Z,102216.63
2022-10-02T10:43:42.443Z,102203.63
2022-10-02T10:46:52.302Z,102206.69
2022-10-02T10:49:35.849Z,102199.34
2022-10-02T10:52:34.375Z,102201.69
2022-10-02T10:55:27.040Z,102195.63
2022-10-02T10:58:04.115Z,102196.91
2022-10-02T11:00:47.053Z,102199.16
2022-10-02T11:03:36.576Z,102197.16
2022-10-02T11:06:37.173Z,102190.84
2022-10-02T11:09:32.272Z,102191.44
2022-10-02T11:12:18.369Z,102183.63
2022-10-02T11:14:48.947Z,102182.00
2022-10-02T11:17:40.523Z,102177.25
2022-10-02T11:20:25.008Z,102174.84
2022-10-02T11:23:29.700Z,102173.47
2022-10-02T11:27:03.739Z,102175.19
2022-10-02T11:30:11.901Z,102179.66
2022-10-02T11:33:11.759Z,102173.97
2022-10-02T11:36:18.381Z,102171.56
2022-10-02T11:39:22.072Z,102170.25
2022-10-02T11:42:13.404Z,102167.28
2022-10-02T11:45:16.949Z,102167.53
2022-10-02T11:47:47.498Z,102159.72
2022-10-02T11:50:48.344Z,102154.69
2022-10-02T11:53:39.159Z,102149.59
2022-10-02T11:56:23.257Z,102153.47
2022-10-02T11:59:18.834Z,102153.69
2022-10-02T12:02:00.110Z,102150.16
2022-10-02T12:04:52.940Z,102140.00
2022-10-02T12:07:41.271Z,102133.38
2022-10-02T12:10:46.413Z,102137.34
2022-10-02T12:13:29.665Z,102127.44
2022-10-02T12:16:06.700Z,102135.00
2022-10-02T12:18:40.969Z,102110.19
2022-10-02T12:21:43.356Z,102116.69
2022-10-02T12:24:55.023Z,102120.16
2022-10-02T12:27:32.229Z,102116.03
2022-10-02T12:30:17.360Z,102100.59
2022-10-02T12:33:13.532Z,102100.03
2022-10-02T12:36:07.220Z,102095.25
2022-10-02T12:38:40.009Z,102076.66
2022-10-02T12:41:11.146Z,102080.06
2022-10-02T12:44:09.784Z,102083.94
2022-10-02T12:47:04.101Z,102080.38
2022-10-02T12:49:59.626Z,102070.47
2022-10-02T12:52:51.571Z,102073.19
2022-10-02T12:55:35.013Z,102066.44
2022-10-02T12:58:03.282Z,102063.19
2022-10-02T13:01:04.630Z,102066.50
2022-10-02T13:03:49.068Z,102062.69
2022-10-02T13:07:11.492Z,102065.50
2022-10-02T13:09:45.077Z,102064.34
2022-10-02T13:12:54.430Z,102054.78
2022-10-02T13:15:37.665Z,102050.97
2022-10-02T13:18:46.860Z,102051.88
2022-10-02T13:21:57.718Z,102045.28
2022-10-02T13:24:56.459Z,102050.06
2022-10-02T13:27:42.625Z,102040.88
2022-10-02T13:30:24.767Z,102036.78
2022-10-02T13:33:06.661Z,102028.50
2022-10-02T13:35:55.378Z,102023.88
2022-10-02T13:38:47.624Z,102026.66
2022-10-02T13:41:47.947Z,102026.16
2022-10-02T13:44:49.302Z,102022.88
2022-10-02T13:47:23.508Z,102013.03
2022-10-02T13:50:00.242Z,102007.41
2022-10-02T13:52:52.283Z,101998.22
2022-10-02T13:55:33.236Z,102000.63
2022-10-02T13:58:36.180Z,101994.47
2022-10-02T14:05:22.642Z,101994.56
2022-10-02T14:08:06.868Z,101989.44
2022-10-02T14:11:11.552Z,101990.03
2022-10-02T14:13:48.618Z,101978.03
2022-10-02T14:16:44.191Z,101980.25
2022-10-02T14:19:54.177Z,101972.00
2022-10-02T14:23:05.555Z,101969.53
2022-10-02T14:25:52.665Z,101982.84
2022-10-02T14:28:51.920Z,101975.00
2022-10-02T14:31:43.246Z,101979.00
2022-10-02T14:34:42.013Z,101977.56
2022-10-02T14:37:33.369Z,101975.06
2022-10-02T14:40:14.989Z,101971.84
2022-10-02T14:43:03.889Z,101968.84
2022-10-02T14:46:32.314Z,101954.44
2022-10-02T14:50:00.751Z,101957.06
2022-10-02T14:53:06.783Z,101955.94
2022-10-02T14:55:37.645Z,101951.53
2022-10-02T14:58:30.716Z,101952.09
2022-10-02T15:01:27.238Z,101953.47
2022-10-02T15:05:00.049Z,101952.06
2022-10-02T15:07:35.204Z,101943.81
2022-10-02T15:10:27.200Z,101934.56
2022-10-02T15:13:40.905Z,101943.88
2022-10-02T15:16:40.935Z,101933.53
2022-10-02T15:19:58.459Z,101928.06
2022-10-02T15:22:48.028Z,101930.28
2022-10-02T15:25:28.257Z,101932.78
2022-10-02T15:28:24.326Z,101920.22
2022-10-02T15:31:19.875Z,101918.56
2022-10-02T15:34:17.037Z,101914.00
2022-10-02T15:36:56.649Z,101914.56
2022-10-02T15:39:40.219Z,101920.59
2022-10-02T15:42:23.736Z,101918.19
2022-10-02T15:45:15.334Z,101920.59
2022-10-02T15:47:50.559Z,101920.06
2022-10-02T15:50:54.015Z,101921.72
2022-10-02T15:54:05.762Z,101915.94
2022-10-02T15:57:26.567Z,101914.06
2022-10-02T16:00:23.342Z,101909.13
2022-10-02T16:03:10.026Z,101913.22
2022-10-02T16:06:12.929Z,101911.31
2022-10-02T16:09:04.967Z,101906.50
2022-10-02T16:11:44.504Z,101916.53
2022-10-02T16:14:24.873Z,101909.75
2022-10-02T16:17:57.400Z,101916.25
2022-10-02T16:20:39.418Z,101918.19
2022-10-02T16:23:39.500Z,101933.69
2022-10-02T16:26:13.612Z,101928.16
2022-10-02T16:29:34.881Z,101924.84
2022-10-02T16:33:06.409Z,101935.19
2022-10-02T16:35:54.586Z,101935.13
2022-10-02T16:38:51.113Z,101942.13
2022-10-02T16:42:02.478Z,101933.44
2022-10-02T16:45:03.369Z,101945.88
2022-10-02T16:48:07.889Z,101939.97
2022-10-02T16:50:59.880Z,101942.50
2022-10-02T16:53:50.403Z,101937.66
2022-10-02T16:56:32.155Z,101941.41
2022-10-02T16:59:25.120Z,101944.50
2022-10-02T17:02:17.054Z,101947.78
2022-10-02T17:05:01.311Z,101948.19
2022-10-02T17:07:48.976Z,101943.75
2022-10-02T17:10:37.789Z,101946.63
2022-10-02T17:13:46.504Z,101950.34
2022-10-02T17:16:21.681Z,101951.00
2022-10-02T17:19:02.187Z,101952.56
2022-10-02T17:21:38.674Z,101954.69
2022-10-02T17:24:38.075Z,101958.38
2022-10-02T17:27:33.138Z,101964.25
2022-10-02T17:30:09.791Z,101959.00
2022-10-02T17:32:50.093Z,101957.81
2022-10-02T17:35:34.843Z,101963.16
2022-10-02T17:38:47.726Z,101965.28
2022-10-02T17:41:18.252Z,101968.63
2022-10-02T17:44:02.737Z,101975.34
2022-10-02T17:47:07.477Z,101965.81
2022-10-02T17:49:49.849Z,101974.09
2022-10-02T17:53:02.847Z,101973.25
2022-10-02T17:55:56.041Z,101968.78
2022-10-02T17:58:42.384Z,101968.56
2022-10-02T18:01:32.900Z,101969.53
2022-10-02T18:04:21.065Z,101968.56
2022-10-02T18:07:22.156Z,101966.66
2022-10-02T18:10:25.573Z,101968.19
2022-10-02T18:12:59.439Z,101973.31
2022-10-02T18:15:45.565Z,101968.19
2022-10-02T18:18:52.805Z,101961.59
2022-10-02T18:21:46.296Z,101967.50
2022-10-02T18:24:41.591Z,101970.69
2022-10-02T18:27:45.442Z,101968.47
2022-10-02T18:30:20.396Z,101961.84
2022-10-02T18:33:24.970Z,101968.81
2022-10-02T18:36:18.404Z,101969.28
2022-10-02T18:39:12.744Z,101969.75
2022-10-02T18:41:56.996Z,101970.72
2022-10-02T18:44:49.886Z,101978.25
2022-10-02T18:47:39.218Z,101970.81
2022-10-02T18:50:40.110Z,101971.28
2022-10-02T18:53:30.988Z,101971.97
2022-10-02T18:56:14.171Z,101974.34
2022-10-02T18:59:13.944Z,101970.44
2022-10-02T19:02:08.337Z,101967.38
2022-10-02T19:05:14.011Z,101975.50
2022-10-02T19:07:53.901Z,101973.50
2022-10-02T19:10:24.075Z,101973.94
2022-10-02T19:12:57.705Z,101977.50
2022-10-02T19:15:33.580Z,101984.19
2022-10-02T19:18:08.469Z,101982.53
2022-10-02T19:20:51.902Z,101992.56
2022-10-02T19:23:45.661Z,101991.75
2022-10-02T19:26:20.583Z,101985.94
2022-10-02T19:29:03.290Z,101988.91
2022-10-02T19:31:36.064Z,101989.94
2022-10-02T19:34:12.086Z,101991.00
2022-10-02T19:36:50.708Z,101995.63
2022-10-02T19:39:30.906Z,101998.56
2022-10-02T19:42:03.439Z,101998.19
2022-10-02T19:44:36.874Z,101995.13
2022-10-02T19:47:28.507Z,102002.41
2022-10-02T19:49:59.027Z,102001.22
2022-10-02T19:52:44.440Z,101999.44
2022-10-02T19:55:23.249Z,102000.72
2022-10-02T19:57:57.607Z,102000.13
2022-10-02T20:00:28.973Z,102008.72
2022-10-02T20:02:59.802Z,102010.25
2022-10-02T20:05:32.073Z,102017.31
2022-10-02T20:08:07.164Z,102025.63
2022-10-02T20:10:43.164Z,102025.84
2022-10-02T20:13:38.016Z,102027.44
2022-10-02T20:16:42.867Z,102028.50
2022-10-02T20:19:31.185Z,102027.97
2022-10-02T20:22:04.666Z,102027.97
2022-10-02T20:24:51.662Z,102029.34
2022-10-02T20:27:52.745Z,102028.34
2022-10-02T20:30:27.663Z,102045.06
2022-10-02T20:33:21.406Z,102038.78
2022-10-02T20:36:06.834Z,102040.53
2022-10-02T20:39:01.139Z,102040.97
2022-10-02T20:42:10.507Z,102045.59
2022-10-02T20:44:42.136Z,102039.63
2022-10-02T20:47:46.200Z,102040.69
2022-10-02T20:50:46.857Z,102034.88
2022-10-02T20:53:36.133Z,102037.28
2022-10-02T20:56:41.079Z,102040.88
2022-10-02T20:59:23.032Z,102038.06
2022-10-02T21:02:00.057Z,102035.22
2022-10-02T21:04:46.516Z,102031.34
2022-10-02T21:07:36.407Z,102031.34
2022-10-02T21:10:32.906Z,102031.56
2022-10-02T21:13:18.029Z,102028.50
2022-10-02T21:15:48.516Z,102021.03
2022-10-02T21:18:42.494Z,102020.63
2022-10-02T21:21:31.749Z,102015.63
2022-10-02T21:24:11.849Z,102019.81
2022-10-02T21:27:04.654Z,102016.34
2022-10-02T21:29:42.370Z,102025.78
2022-10-02T21:32:48.365Z,102026.00
2022-10-02T21:35:44.504Z,102029.63
2022-10-02T21:38:28.604Z,102030.59
2022-10-02T21:41:16.008Z,102022.09
2022-10-02T21:44:21.371Z,102028.94
2022-10-02T21:47:27.377Z,102022.50
2022-10-02T21:50:32.377Z,102019.19
2022-10-02T21:53:37.939Z,102022.09
2022-10-02T21:56:31.315Z,102022.28
2022-10-02T21:59:19.932Z,102020.00
2022-10-02T22:02:13.787Z,102022.28
2022-10-02T22:04:53.323Z,102015.00
2022-10-02T22:07:33.345Z,102012.31
2022-10-02T22:10:15.416Z,102016.69
2022-10-02T22:12:51.029Z,102010.94
2022-10-02T22:15:53.337Z,102012.69
2022-10-02T22:18:30.070Z,102012.91
2022-10-02T22:21:20.278Z,102006.44
2022-10-02T22:24:19.761Z,102011.47
2022-10-02T22:27:36.591Z,102021.03
2022-10-02T22:30:05.780Z,102015.84
2022-10-02T22:33:09.755Z,102016.44
2022-10-02T22:35:50.376Z,102016.63
2022-10-02T22:38:36.871Z,102028.03
2022-10-02T22:41:16.613Z,102021.41
2022-10-02T22:43:54.654Z,102015.19
2022-10-02T22:46:51.978Z,102014.34
2022-10-02T22:49:44.238Z,102013.72
2022-10-02T22:52:30.446Z,102011.66
2022-10-02T22:55:26.458Z,102018.53
2022-10-02T22:58:11.207Z,102011.94
2022-10-02T23:00:58.047Z,102009.03
2022-10-02T23:03:37.525Z,102008.81
2022-10-02T23:06:35.535Z,102012.63
2022-10-02T23:09:44.065Z,102003.25
2022-10-02T23:12:26.617Z,102001.03
2022-10-02T23:15:23.884Z,101996.63
2022-10-02T23:18:06.340Z,101995.56
2022-10-02T23:20:41.690Z,102007.25
2022-10-02T23:23:21.431Z,102001.81
2022-10-02T23:25:57.256Z,101999.94
2022-10-02T23:28:54.443Z,101995.56
2022-10-02T23:31:35.312Z,102013.88
2022-10-02T23:34:54.690Z,102008.25
2022-10-02T23:37:40.374Z,102009.13
2022-10-02T23:40:53.272Z,102008.28
2022-10-02T23:43:32.975Z,102001.88
2022-10-02T23:46:10.347Z,102003.56
2022-10-02T23:48:39.724Z,102003.13
2022-10-02T23:51:43.031Z,101999.97
2022-10-02T23:54:29.607Z,101998.16
2022-10-02T23:57:23.379Z,101995.47
